createdAt,value
2023-04-13T00:00:13.139Z,99.90
2023-04-13T00:10:12.147Z,99.90
2023-04-13T00:20:12.960Z,99.90
2023-04-13T00:30:12.161Z,98.70
2023-04-13T00:40:11.272Z,98.70
2023-04-13T00:50:10.110Z,98.30
2023-04-13T01:00:09.320Z,97.60
2023-04-13T01:10:09.103Z,97.30
2023-04-13T01:20:10.392Z,96.90
2023-04-13T01:30:11.538Z,96.60
2023-04-13T01:40:12.852Z,96.00
2023-04-13T01:50:20.960Z,95.60
2023-04-13T02:00:23.969Z,95.40
2023-04-13T02:10:23.854Z,95.10
2023-04-13T02:20:23.568Z,94.70
2023-04-13T02:30:22.203Z,94.60
2023-04-13T02:40:21.189Z,94.20
2023-04-13T02:50:22.248Z,94.10
2023-04-13T03:00:23.171Z,94.00
2023-04-13T03:10:23.017Z,93.90
2023-04-13T03:20:27.968Z,93.90
2023-04-13T03:30:29.171Z,93.80
2023-04-13T03:40:28.951Z,93.70
2023-04-13T03:50:29.301Z,93.70
2023-04-13T04:00:33.120Z,93.60
2023-04-13T04:10:32.650Z,93.60
2023-04-13T04:20:32.016Z,93.90
2023-04-13T04:30:33.176Z,94.30
2023-04-13T04:40:34.354Z,94.80
2023-04-13T04:50:35.315Z,95.10
2023-04-13T05:00:39.564Z,95.30
2023-04-13T05:10:38.213Z,95.10
2023-04-13T05:20:39.752Z,95.30
2023-04-13T05:30:38.672Z,95.30
2023-04-13T05:40:37.471Z,95.50
2023-04-13T05:50:36.691Z,95.30
2023-04-13T06:00:37.367Z,95.30
2023-04-13T06:10:36.328Z,95.20
2023-04-13T06:20:35.571Z,95.30
2023-04-13T06:30:36.170Z,95.00
2023-04-13T06:40:37.081Z,94.10
2023-04-13T06:50:37.554Z,93.70
2023-04-13T07:00:36.812Z,93.40
2023-04-13T07:10:39.293Z,92.80
2023-04-13T07:20:39.762Z,92.40
2023-04-13T07:30:38.583Z,91.80
2023-04-13T07:40:39.096Z,91.10
2023-04-13T07:50:38.520Z,90.60
2023-04-13T08:00:37.743Z,90.50
2023-04-13T08:10:37.803Z,90.90
2023-04-13T08:20:37.480Z,91.00
2023-04-13T08:30:37.971Z,90.90
2023-04-13T08:40:38.015Z,90.60
2023-04-13T08:50:37.856Z,90.30
2023-04-13T09:00:36.979Z,90.00
2023-04-13T09:10:36.645Z,90.00
2023-04-13T09:20:36.477Z,87.80
2023-04-13T09:30:35.345Z,88.00
2023-04-13T09:40:36.734Z,86.10
2023-04-13T09:50:36.473Z,85.90
2023-04-13T10:00:35.360Z,85.30
2023-04-13T10:10:34.585Z,83.80
2023-04-13T10:20:33.335Z,82.30
2023-04-13T10:30:32.572Z,78.60
2023-04-13T10:40:31.335Z,78.80
2023-04-13T10:50:30.777Z,77.00
2023-04-13T11:00:42.240Z,77.00
2023-04-13T11:10:31.105Z,76.30
2023-04-13T11:20:30.547Z,77.10
2023-04-13T11:30:29.410Z,75.50
2023-04-13T11:40:28.383Z,73.20
2023-04-13T11:50:27.498Z,72.40
2023-04-13T12:00:26.831Z,74.70
2023-04-13T12:10:36.420Z,73.00
2023-04-13T12:20:27.826Z,72.70
2023-04-13T12:30:26.957Z,71.90
2023-04-13T12:40:26.197Z,68.00
2023-04-13T12:50:26.069Z,66.10
2023-04-13T13:00:24.426Z,63.30
2023-04-13T13:10:29.494Z,61.10
2023-04-13T13:20:24.500Z,61.80
2023-04-13T13:30:24.888Z,61.00
2023-04-13T13:40:23.585Z,57.80
2023-04-13T13:50:23.402Z,56.50
2023-04-13T14:00:22.908Z,54.90
2023-04-13T14:10:21.556Z,53.40
2023-04-13T14:20:20.682Z,52.40
2023-04-13T14:30:19.727Z,51.70
2023-04-13T14:40:20.482Z,50.50
2023-04-13T14:50:19.855Z,49.30
2023-04-13T15:00:23.381Z,48.70
2023-04-13T15:10:22.594Z,50.70
2023-04-13T15:20:21.719Z,50.10
2023-04-13T15:30:20.835Z,50.40
2023-04-13T15:40:19.569Z,49.10
2023-04-13T15:50:19.383Z,49.50
2023-04-13T16:00:18.798Z,50.40
2023-04-13T16:10:18.695Z,49.80
2023-04-13T16:20:19.280Z,51.30
2023-04-13T16:30:21.854Z,50.00
2023-04-13T16:40:21.374Z,49.80
2023-04-13T16:50:20.790Z,47.80
2023-04-13T17:00:19.937Z,48.40
2023-04-13T17:10:18.819Z,46.90
2023-04-13T17:20:17.989Z,47.10
2023-04-13T17:30:16.709Z,45.60
2023-04-13T17:40:15.802Z,45.30
2023-04-13T17:50:15.098Z,45.90
2023-04-13T18:00:14.160Z,47.60
2023-04-13T18:10:12.653Z,48.80
2023-04-13T18:20:11.817Z,49.90
2023-04-13T18:30:10.890Z,50.70
2023-04-13T18:40:09.843Z,51.30
2023-04-13T18:50:08.931Z,52.10
2023-04-13T19:00:09.984Z,53.00
2023-04-13T19:10:08.953Z,53.90
2023-04-13T19:20:10.133Z,54.80
2023-04-13T19:30:09.787Z,55.70
2023-04-13T19:40:09.657Z,56.80
2023-04-13T19:50:08.832Z,57.70
2023-04-13T20:00:10.117Z,58.60
2023-04-13T20:10:09.092Z,59.10
2023-04-13T20:20:09.615Z,60.60
2023-04-13T20:30:09.328Z,62.30
2023-04-13T20:40:10.259Z,63.20
2023-04-13T20:50:09.849Z,64.30
2023-04-13T21:00:11.459Z,65.70
2023-04-13T21:10:11.835Z,67.00
2023-04-13T21:20:10.972Z,67.60
2023-04-13T21:30:09.778Z,68.20
2023-04-13T21:40:08.936Z,68.10
2023-04-13T21:50:07.927Z,67.70
2023-04-13T22:00:09.979Z,68.30
2023-04-13T22:10:08.858Z,69.20
2023-04-13T22:20:07.933Z,69.70
2023-04-13T22:30:06.919Z,70.80
2023-04-13T22:40:05.804Z,70.30
2023-04-13T22:50:04.843Z,71.50
2023-04-13T23:00:03.929Z,71.90
2023-04-13T23:10:02.941Z,72.00
2023-04-13T23:20:06.567Z,72.60
2023-04-13T23:30:06.052Z,73.10
2023-04-13T23:40:04.963Z,74.20
2023-04-13T23:50:04.081Z,74.70
